Time;durP1;ratioP1;P1;durP2;ratioP2;P2;SDS_P1;SDS_P2;PMS_P1;PMS_P2;Temp;Humidity;BMP_temperature;BMP_pressure;BME280_temperature;BME280_humidity;BME280_pressure;Samples;Min_cycle;Max_cycle;Signal;HPM_P1;HPM_P2
2023/05/07 00:00:45;;;;;;;30.70;12.27;;;;;;;8.94;100.00;101395.94;6053854;28;20373;-70
2023/05/07 00:03:40;;;;;;;31.10;12.87;;;;;;;8.99;100.00;101389.28;6052684;28;20412;-70
2023/05/07 00:06:35;;;;;;;25.77;11.03;;;;;;;8.93;100.00;101400.38;6053517;28;20099;-70
2023/05/07 00:09:31;;;;;;;27.03;12.33;;;;;;;9.09;100.00;101401.81;6053616;28;20022;-72
2023/05/07 00:12:26;;;;;;;28.97;12.93;;;;;;;8.96;100.00;101416.00;6053558;28;20273;-69
2023/05/07 00:15:21;;;;;;;28.20;12.57;;;;;;;8.91;100.00;101404.09;6052697;28;20041;-70
2023/05/07 00:18:20;;;;;;;30.13;11.87;;;;;;;9.03;100.00;101416.34;6053581;28;20054;-71
2023/05/07 00:21:16;;;;;;;25.90;12.07;;;;;;;9.02;100.00;101401.47;6052954;28;20465;-70
2023/05/07 00:24:11;;;;;;;27.35;13.50;;;;;;;9.05;100.00;101414.41;6052473;28;20038;-70
2023/05/07 00:27:06;;;;;;;30.40;11.37;;;;;;;8.97;100.00;101393.00;6053170;28;20041;-70
2023/05/07 00:30:02;;;;;;;26.73;12.20;;;;;;;9.01;100.00;101381.25;6053108;28;20488;-71
2023/05/07 00:32:57;;;;;;;29.53;11.50;;;;;;;8.92;100.00;101398.66;6052439;28;20038;-71
2023/05/07 00:35:54;;;;;;;24.87;11.77;;;;;;;8.95;100.00;101384.38;6052146;28;20144;-70
2023/05/07 00:38:49;;;;;;;31.58;13.45;;;;;;;8.92;100.00;101396.03;6053034;28;20065;-70
2023/05/07 00:41:45;;;;;;;26.38;12.10;;;;;;;8.97;100.00;101409.72;6060613;28;20036;-71
2023/05/07 00:44:41;;;;;;;28.77;11.15;;;;;;;8.84;100.00;101389.63;6056538;28;20040;-69
2023/05/07 00:47:36;;;;;;;31.65;14.02;;;;;;;9.00;100.00;101395.44;6052585;28;20038;-70
2023/05/07 00:50:32;;;;;;;29.20;14.70;;;;;;;8.96;100.00;101394.00;6051967;28;20418;-71
2023/05/07 00:53:27;;;;;;;27.85;12.43;;;;;;;8.86;100.00;101388.56;6033033;28;20050;-71
2023/05/07 00:56:23;;;;;;;26.65;11.57;;;;;;;8.88;100.00;101383.16;6052636;28;20030;-70
2023/05/07 00:59:18;;;;;;;28.42;12.77;;;;;;;8.94;100.00;101386.16;6057448;28;20088;-71
2023/05/07 01:02:14;;;;;;;29.58;14.27;;;;;;;8.93;100.00;101384.50;6052427;28;20589;-72
2023/05/07 01:05:12;;;;;;;31.47;13.97;;;;;;;8.99;100.00;101396.41;6050423;28;20053;-70
2023/05/07 01:08:08;;;;;;;27.27;12.15;;;;;;;8.84;100.00;101366.69;6051286;28;20344;-71
2023/05/07 01:11:03;;;;;;;29.17;12.57;;;;;;;8.98;100.00;101381.47;6052101;28;20080;-71
2023/05/07 01:13:59;;;;;;;28.47;13.03;;;;;;;9.01;100.00;101369.81;6051192;28;20082;-71
2023/05/07 01:16:54;;;;;;;29.55;12.27;;;;;;;9.02;100.00;101382.94;6052142;28;20033;-72
2023/05/07 01:19:50;;;;;;;23.73;10.70;;;;;;;8.94;100.00;101391.44;6052188;28;20033;-69
2023/05/07 01:22:45;;;;;;;26.27;11.55;;;;;;;8.94;100.00;101380.06;6052460;28;20461;-71
2023/05/07 01:25:41;;;;;;;22.77;9.90;;;;;;;9.01;100.00;101390.97;6051656;28;20030;-72
2023/05/07 01:28:36;;;;;;;20.57;9.97;;;;;;;9.00;100.00;101390.13;6052378;28;20088;-72
2023/05/07 01:31:32;;;;;;;17.87;9.07;;;;;;;9.03;100.00;101394.34;6052042;28;20029;-71
2023/05/07 01:34:30;;;;;;;18.98;8.40;;;;;;;9.13;100.00;101393.50;6051101;28;20029;-72
2023/05/07 01:37:26;;;;;;;19.98;8.30;;;;;;;9.09;100.00;101399.16;6052000;28;20033;-71
2023/05/07 01:40:22;;;;;;;19.33;8.57;;;;;;;8.99;100.00;101385.81;6033882;28;20480;-71
2023/05/07 01:43:17;;;;;;;22.60;10.68;;;;;;;9.02;100.00;101397.97;6059499;28;20029;-70
2023/05/07 01:46:12;;;;;;;20.57;9.67;;;;;;;9.01;100.00;101399.75;6051404;28;20046;-70
2023/05/07 01:49:08;;;;;;;19.73;8.73;;;;;;;8.99;100.00;101410.44;6033876;28;20045;-71
2023/05/07 01:52:03;;;;;;;21.80;9.60;;;;;;;8.88;100.00;101396.38;6050439;28;20156;-71
2023/05/07 01:54:59;;;;;;;21.40;10.52;;;;;;;9.06;100.00;101410.81;6050909;28;20041;-70
2023/05/07 01:57:54;;;;;;;22.73;10.30;;;;;;;8.98;100.00;101405.28;6058005;28;20029;-70
2023/05/07 02:00:49;;;;;;;20.53;9.90;;;;;;;8.96;100.00;101413.34;6051912;28;20093;-69
2023/05/07 02:03:45;;;;;;;23.23;10.00;;;;;;;8.98;100.00;101413.22;6069452;28;20061;-70
2023/05/07 02:06:40;;;;;;;17.20;8.17;;;;;;;8.97;100.00;101406.25;6051328;28;20034;-71
2023/05/07 02:09:35;;;;;;;22.20;8.83;;;;;;;8.94;100.00;101406.50;6051462;28;20632;-71
2023/05/07 02:12:30;;;;;;;19.73;8.67;;;;;;;8.95;100.00;101402.88;6050812;28;20081;-71
2023/05/07 02:15:26;;;;;;;19.97;7.57;;;;;;;8.93;100.00;101404.81;6050398;28;20818;-71
2023/05/07 02:18:21;;;;;;;17.10;7.55;;;;;;;8.79;100.00;101408.50;6050133;28;20395;-69
2023/05/07 02:21:17;;;;;;;20.57;8.17;;;;;;;8.67;100.00;101393.56;6051041;28;20022;-71
2023/05/07 02:24:12;;;;;;;16.65;7.40;;;;;;;8.75;100.00;101398.31;6041588;28;20022;-71
2023/05/07 02:27:07;;;;;;;17.17;7.50;;;;;;;8.68;100.00;101399.72;6050632;28;20033;-71
2023/05/07 02:30:03;;;;;;;18.03;7.63;;;;;;;8.74;100.00;101399.25;6050518;28;20468;-70
2023/05/07 02:32:58;;;;;;;16.83;7.32;;;;;;;8.71;100.00;101410.91;6049560;28;20042;-70
2023/05/07 02:35:53;;;;;;;21.67;9.23;;;;;;;8.64;100.00;101403.56;6049953;28;20052;-71
2023/05/07 02:38:49;;;;;;;15.47;7.57;;;;;;;8.62;100.00;101401.00;6050429;28;20029;-70
2023/05/07 02:41:44;;;;;;;21.00;7.97;;;;;;;8.70;100.00;101418.94;6058158;28;20055;-70
2023/05/07 02:44:39;;;;;;;20.73;8.47;;;;;;;8.74;100.00;101420.41;6050407;28;20378;-71
2023/05/07 02:47:35;;;;;;;21.17;8.60;;;;;;;8.73;100.00;101416.06;6049894;28;20040;-72
2023/05/07 02:50:30;;;;;;;18.38;7.70;;;;;;;8.63;100.00;101407.16;6050191;28;20017;-71
2023/05/07 02:53:26;;;;;;;17.00;6.77;;;;;;;8.64;100.00;101420.25;6049178;28;20041;-70
2023/05/07 02:56:21;;;;;;;15.60;7.10;;;;;;;8.62;100.00;101416.03;6050142;28;20081;-71
2023/05/07 02:59:17;;;;;;;18.10;7.88;;;;;;;8.67;100.00;101429.78;6049698;28;20030;-71
2023/05/07 03:02:12;;;;;;;16.00;7.83;;;;;;;8.70;100.00;101437.44;6049930;28;20049;-72
2023/05/07 03:05:08;;;;;;;17.53;7.27;;;;;;;8.61;100.00;101409.94;6049092;28;20036;-72
2023/05/07 03:08:03;;;;;;;16.17;7.30;;;;;;;8.60;100.00;101412.66;6049405;28;20284;-70
2023/05/07 03:10:59;;;;;;;14.65;6.78;;;;;;;8.68;100.00;101428.78;6049843;28;20051;-70
2023/05/07 03:13:54;;;;;;;14.23;6.63;;;;;;;8.67;100.00;101421.84;6048989;28;20053;-70
2023/05/07 03:16:50;;;;;;;15.98;7.43;;;;;;;8.57;100.00;101413.75;6050021;28;20036;-72
2023/05/07 03:19:45;;;;;;;16.08;8.90;;;;;;;8.60;100.00;101410.03;6049646;28;20030;-70
2023/05/07 03:22:40;;;;;;;14.40;7.03;;;;;;;8.47;100.00;101394.25;6049324;28;20041;-70
2023/05/07 03:25:36;;;;;;;16.63;7.70;;;;;;;8.50;100.00;101391.38;6048911;28;20080;-70
2023/05/07 03:28:31;;;;;;;16.63;7.57;;;;;;;8.51;100.00;101395.69;6049507;28;20052;-69
2023/05/07 03:31:26;;;;;;;16.37;7.80;;;;;;;8.49;100.00;101388.84;6048947;28;20018;-71
2023/05/07 03:34:22;;;;;;;15.77;7.70;;;;;;;8.58;100.00;101406.66;6051285;28;20044;-71
2023/05/07 03:37:17;;;;;;;17.50;7.72;;;;;;;8.53;100.00;101390.31;6049113;28;20022;-71
2023/05/07 03:40:12;;;;;;;20.95;8.18;;;;;;;8.59;100.00;101393.31;6049491;28;20084;-70
2023/05/07 03:43:08;;;;;;;15.37;7.20;;;;;;;8.63;100.00;101399.22;6058517;28;20484;-70
2023/05/07 03:46:03;;;;;;;16.63;6.70;;;;;;;8.76;100.00;101414.03;6048920;28;20037;-73
2023/05/07 03:48:58;;;;;;;17.07;7.73;;;;;;;8.65;100.00;101413.16;6049468;28;20271;-70
2023/05/07 03:51:54;;;;;;;18.53;8.00;;;;;;;8.62;100.00;101405.47;6049249;28;20025;-72
2023/05/07 03:54:49;;;;;;;12.30;6.40;;;;;;;8.47;100.00;101396.91;6048414;28;20140;-72
2023/05/07 03:57:44;;;;;;;13.40;6.50;;;;;;;8.53;100.00;101407.03;6048438;28;20369;-70
2023/05/07 04:00:40;;;;;;;16.30;7.28;;;;;;;8.50;100.00;101396.69;6049030;28;20265;-69
2023/05/07 04:03:36;;;;;;;15.00;7.55;;;;;;;8.45;100.00;101409.41;6047740;28;20426;-71
2023/05/07 04:06:31;;;;;;;17.00;6.43;;;;;;;8.50;100.00;101409.88;6048988;28;20095;-72
2023/05/07 04:09:26;;;;;;;15.13;6.50;;;;;;;8.49;100.00;101413.47;6049056;28;20018;-72
2023/05/07 04:12:22;;;;;;;14.13;6.97;;;;;;;8.40;100.00;101408.88;6048656;28;20466;-71
2023/05/07 04:15:17;;;;;;;15.27;7.53;;;;;;;8.37;100.00;101414.38;6048382;28;20656;-71
2023/05/07 04:18:12;;;;;;;13.57;5.95;;;;;;;8.37;100.00;101409.94;6049072;28;20026;-71
2023/05/07 04:21:15;;;;;;;15.10;7.23;;;;;;;8.51;100.00;101422.13;6049022;28;20022;-71
2023/05/07 04:24:10;;;;;;;16.83;7.10;;;;;;;8.46;100.00;101420.78;6048425;28;20419;-70
2023/05/07 04:27:06;;;;;;;14.70;6.00;;;;;;;8.47;100.00;101419.84;6048976;28;20045;-72
2023/05/07 04:30:02;;;;;;;13.85;7.22;;;;;;;8.47;100.00;101418.03;6051353;28;20026;-69
2023/05/07 04:32:57;;;;;;;17.08;7.10;;;;;;;8.46;100.00;101420.78;6065518;28;20416;-70
2023/05/07 04:35:52;;;;;;;15.50;7.27;;;;;;;8.57;100.00;101440.19;6048484;28;20049;-71
2023/05/07 04:38:48;;;;;;;11.30;6.07;;;;;;;8.49;100.00;101442.56;6049128;28;20029;-70
2023/05/07 04:41:43;;;;;;;13.83;6.47;;;;;;;8.51;100.00;101443.28;6052507;28;20026;-70
2023/05/07 04:44:38;;;;;;;12.23;6.20;;;;;;;8.52;100.00;101442.31;6052254;28;20483;-70
2023/05/07 04:47:34;;;;;;;16.03;6.83;;;;;;;8.53;99.70;101451.09;6052800;28;20044;-70
2023/05/07 04:50:30;;;;;;;12.05;5.93;;;;;;;8.55;99.69;101462.41;6062561;28;20022;-72
2023/05/07 04:53:25;;;;;;;11.35;5.47;;;;;;;8.62;99.23;101469.75;6052328;28;20464;-71
2023/05/07 04:56:20;;;;;;;10.40;5.60;;;;;;;8.57;98.24;101465.75;6054641;28;20116;-71
2023/05/07 04:59:16;;;;;;;10.73;5.50;;;;;;;8.63;98.19;101470.59;6052908;28;20080;-71
2023/05/07 05:02:11;;;;;;;14.47;5.47;;;;;;;8.63;98.05;101474.09;6052549;28;20029;-69
2023/05/07 05:05:07;;;;;;;14.60;6.53;;;;;;;8.56;97.80;101470.19;6060597;28;20089;-71
2023/05/07 05:08:02;;;;;;;13.30;5.80;;;;;;;8.62;97.46;101485.63;6052717;28;20269;-70
2023/05/07 05:10:58;;;;;;;12.90;5.73;;;;;;;8.54;97.11;101477.41;6052369;28;20413;-70
2023/05/07 05:13:53;;;;;;;10.20;3.83;;;;;;;8.68;96.64;101484.31;6051808;28;20307;-73
2023/05/07 05:16:48;;;;;;;10.90;5.63;;;;;;;8.71;96.16;101484.94;6051783;28;20265;-71
2023/05/07 05:19:43;;;;;;;10.37;5.60;;;;;;;8.64;95.87;101486.34;6066672;28;20034;-71
2023/05/07 05:22:39;;;;;;;11.50;5.33;;;;;;;8.71;96.19;101478.78;6071043;28;20376;-72
2023/05/07 05:25:34;;;;;;;12.30;5.80;;;;;;;8.83;96.24;101493.75;6051370;28;20038;-72
2023/05/07 05:28:29;;;;;;;11.85;5.82;;;;;;;8.72;96.30;101491.06;6052352;28;20025;-71
2023/05/07 05:31:25;;;;;;;12.20;6.17;;;;;;;8.75;96.05;101491.66;6051940;28;20101;-71
2023/05/07 05:34:21;;;;;;;12.00;5.63;;;;;;;8.83;96.44;101499.03;6051502;28;20109;-71
2023/05/07 05:37:16;;;;;;;11.77;6.20;;;;;;;8.91;95.71;101494.03;6052269;28;20029;-69
2023/05/07 05:40:12;;;;;;;10.83;5.30;;;;;;;8.78;94.53;101480.00;6051851;28;20025;-72
2023/05/07 05:43:07;;;;;;;8.37;4.30;;;;;;;8.89;94.06;101498.56;6053093;28;20026;-71
2023/05/07 05:46:04;;;;;;;11.10;5.23;;;;;;;9.00;93.94;101498.59;6051181;28;20785;-72
2023/05/07 05:49:00;;;;;;;10.52;5.03;;;;;;;8.98;93.35;101505.81;6051844;28;20029;-70
2023/05/07 05:51:55;;;;;;;9.45;4.90;;;;;;;8.94;93.35;101507.84;6051862;28;20026;-71
2023/05/07 05:54:51;;;;;;;9.45;4.80;;;;;;;8.97;93.36;101488.25;6049544;28;20354;-72
2023/05/07 05:57:46;;;;;;;10.00;5.10;;;;;;;9.07;93.70;101497.19;6051401;28;20088;-70
2023/05/07 06:00:41;;;;;;;8.30;4.43;;;;;;;9.02;93.66;101486.13;6051300;28;20026;-71
2023/05/07 06:03:37;;;;;;;10.05;5.25;;;;;;;9.12;92.90;101505.59;6050798;28;20037;-71
2023/05/07 06:06:32;;;;;;;8.33;4.93;;;;;;;9.01;92.75;101479.13;6051574;28;20176;-71
2023/05/07 06:09:27;;;;;;;10.60;6.10;;;;;;;9.07;93.10;101496.34;6050339;28;20022;-71
2023/05/07 06:12:22;;;;;;;9.40;5.03;;;;;;;9.13;92.68;101491.41;6054859;28;20038;-71
2023/05/07 06:15:18;;;;;;;9.13;5.30;;;;;;;9.14;92.69;101501.03;6050073;28;20030;-73
2023/05/07 06:18:13;;;;;;;9.87;4.80;;;;;;;9.23;92.30;101499.50;6051088;28;20064;-71
2023/05/07 06:21:09;;;;;;;8.93;4.43;;;;;;;9.22;92.74;101503.09;6050749;28;20029;-72
2023/05/07 06:24:05;;;;;;;9.68;5.03;;;;;;;9.27;92.18;101515.00;6059681;28;20523;-71
2023/05/07 06:27:00;;;;;;;9.75;5.38;;;;;;;9.30;92.24;101505.97;6074755;28;20028;-69
2023/05/07 06:29:55;;;;;;;12.40;6.20;;;;;;;9.26;92.08;101507.19;6050477;28;20037;-70
2023/05/07 06:32:50;;;;;;;11.70;5.90;;;;;;;9.44;92.11;101496.03;6050810;28;20040;-70
2023/05/07 06:35:46;;;;;;;11.00;6.37;;;;;;;9.45;90.88;101475.69;6049984;28;20030;-70
2023/05/07 06:38:41;;;;;;;9.73;5.83;;;;;;;9.67;90.71;101498.69;6050206;28;20033;-74
2023/05/07 06:41:36;;;;;;;12.03;6.03;;;;;;;9.46;90.33;101493.25;6051709;28;20373;-71
2023/05/07 06:44:32;;;;;;;11.90;6.43;;;;;;;9.47;89.82;101489.63;6049810;28;20029;-71
2023/05/07 06:47:27;;;;;;;11.40;6.27;;;;;;;9.76;89.69;101506.72;6050369;28;20029;-71
2023/05/07 06:50:22;;;;;;;11.67;6.13;;;;;;;9.72;88.65;101493.84;6062682;28;20441;-72
2023/05/07 06:53:18;;;;;;;11.00;6.33;;;;;;;9.87;88.64;101508.53;6050947;28;20037;-72
2023/05/07 06:56:13;;;;;;;13.53;7.13;;;;;;;9.65;88.83;101492.66;6072794;28;20061;-69
2023/05/07 06:59:08;;;;;;;13.53;7.23;;;;;;;9.69;89.37;101507.34;6061042;28;21112;-72
2023/05/07 07:02:03;;;;;;;11.33;6.10;;;;;;;9.60;89.46;101500.94;6050311;28;20080;-72
2023/05/07 07:04:59;;;;;;;14.33;6.87;;;;;;;9.64;89.44;101509.50;6048671;28;20026;-72
2023/05/07 07:07:54;;;;;;;14.17;6.50;;;;;;;9.71;89.08;101513.34;6050188;28;20412;-72
2023/05/07 07:10:49;;;;;;;13.07;7.35;;;;;;;9.68;89.92;101503.84;6049944;28;20084;-71
2023/05/07 07:13:45;;;;;;;12.07;6.97;;;;;;;9.81;89.67;101516.97;6048905;28;20038;-71
2023/05/07 07:16:40;;;;;;;11.53;5.83;;;;;;;9.93;88.74;101523.94;6049761;28;20735;-70
2023/05/07 07:19:36;;;;;;;11.60;6.05;;;;;;;9.83;87.71;101515.03;6049802;28;20480;-72
2023/05/07 07:22:31;;;;;;;11.53;5.83;;;;;;;9.80;88.17;101505.53;6049375;28;20030;-71
2023/05/07 07:25:26;;;;;;;11.77;6.20;;;;;;;9.86;88.73;101520.09;6048524;28;20038;-72
2023/05/07 07:28:22;;;;;;;11.77;6.30;;;;;;;9.93;87.22;101518.63;6049500;28;20369;-71
2023/05/07 07:31:17;;;;;;;11.25;5.70;;;;;;;9.94;86.85;101521.19;6048795;28;20482;-72
2023/05/07 07:34:12;;;;;;;10.53;4.93;;;;;;;10.00;86.66;101514.56;6046651;28;20029;-73
2023/05/07 07:37:08;;;;;;;10.67;5.93;;;;;;;10.15;85.31;101523.94;6048985;28;20085;-71
2023/05/07 07:40:03;;;;;;;13.33;5.97;;;;;;;10.11;84.36;101528.59;6051771;28;20094;-70
2023/05/07 07:43:00;;;;;;;7.40;4.63;;;;;;;10.20;84.43;101535.00;6058132;28;20077;-71
2023/05/07 07:45:55;;;;;;;10.95;4.75;;;;;;;10.24;84.56;101523.22;6063043;28;20132;-69
2023/05/07 07:48:51;;;;;;;8.30;4.07;;;;;;;10.43;84.80;101528.72;6056891;28;20034;-71
2023/05/07 07:51:46;;;;;;;9.17;4.87;;;;;;;10.39;84.26;101521.94;6048881;28;20265;-70
2023/05/07 07:54:41;;;;;;;7.67;4.40;;;;;;;10.58;83.67;101530.09;6069739;28;20032;-70
2023/05/07 07:57:36;;;;;;;8.20;4.60;;;;;;;10.73;82.83;101526.16;6049689;28;20033;-72
2023/05/07 08:00:32;;;;;;;8.27;5.50;;;;;;;10.39;82.79;101537.00;6065122;28;20303;-73
2023/05/07 08:03:28;;;;;;;9.30;5.10;;;;;;;10.39;83.13;101537.00;6068037;28;20108;-72
2023/05/07 08:06:23;;;;;;;10.90;4.85;;;;;;;10.51;83.25;101520.97;6051840;28;20045;-71
2023/05/07 08:09:18;;;;;;;9.23;5.87;;;;;;;10.43;82.53;101533.16;6048011;28;20089;-70
2023/05/07 08:12:13;;;;;;;11.57;6.67;;;;;;;10.44;82.20;101538.31;6048947;28;20038;-71
2023/05/07 08:15:09;;;;;;;12.73;5.82;;;;;;;10.27;83.41;101530.91;6048128;28;20109;-70
2023/05/07 08:18:05;;;;;;;8.48;5.40;;;;;;;10.36;83.31;101540.75;6052512;28;20022;-72
2023/05/07 08:21:01;;;;;;;8.30;4.70;;;;;;;10.32;83.33;101536.69;6053616;28;20093;-71
2023/05/07 08:23:56;;;;;;;8.98;5.13;;;;;;;10.45;82.26;101532.06;6037220;28;20066;-71
2023/05/07 08:26:51;;;;;;;8.97;5.03;;;;;;;10.46;82.64;101551.47;6052699;28;20372;-74
2023/05/07 08:29:47;;;;;;;8.30;4.43;;;;;;;10.60;82.22;101559.97;6053377;28;20021;-72
2023/05/07 08:32:43;;;;;;;9.00;4.95;;;;;;;10.53;82.20;101553.50;6053071;28;20045;-70
2023/05/07 08:35:38;;;;;;;9.07;5.20;;;;;;;10.82;81.19;101529.88;6052751;28;20150;-72
2023/05/07 08:38:33;;;;;;;9.53;5.03;;;;;;;10.70;81.96;101550.31;6053256;28;20285;-74
2023/05/07 08:41:29;;;;;;;9.93;5.80;;;;;;;10.47;83.19;101548.69;6058444;28;20091;-70
2023/05/07 08:44:26;;;;;;;8.07;4.60;;;;;;;10.78;82.33;101554.97;6059567;28;20018;-73
2023/05/07 08:47:23;;;;;;;8.05;4.43;;;;;;;10.92;81.43;101561.81;6043390;28;20089;-69
2023/05/07 08:50:18;;;;;;;8.57;4.95;;;;;;;10.90;81.70;101553.13;6053167;28;20033;-71
2023/05/07 08:53:13;;;;;;;7.70;4.10;;;;;;;11.00;80.44;101544.28;6052422;28;20037;-69
2023/05/07 08:56:09;;;;;;;9.77;5.65;;;;;;;10.73;81.74;101551.88;6050631;28;20030;-69
2023/05/07 08:59:05;;;;;;;9.18;4.90;;;;;;;10.91;80.96;101546.84;6052021;28;20453;-69
2023/05/07 09:02:00;;;;;;;12.57;6.88;;;;;;;10.78;81.91;101565.59;6052008;28;20030;-68
2023/05/07 09:04:55;;;;;;;10.98;6.22;;;;;;;11.19;80.80;101559.50;6038963;28;20112;-69
2023/05/07 09:07:51;;;;;;;13.23;6.73;;;;;;;11.30;79.63;101564.75;6052324;28;20037;-69
2023/05/07 09:10:47;;;;;;;10.47;6.83;;;;;;;11.08;80.27;101559.56;6052248;28;20029;-70
2023/05/07 09:13:43;;;;;;;10.70;6.07;;;;;;;11.14;80.09;101578.44;6041775;28;20029;-71
2023/05/07 09:16:38;;;;;;;10.53;5.73;;;;;;;11.44;79.75;101579.50;6052830;28;20096;-69
2023/05/07 09:19:34;;;;;;;12.38;7.97;;;;;;;11.20;80.78;101561.16;6057662;28;20026;-69
2023/05/07 09:22:31;;;;;;;11.43;7.57;;;;;;;10.86;80.71;101572.91;6069041;28;20038;-67
2023/05/07 09:25:34;;;;;;;11.65;6.32;;;;;;;10.96;80.36;101560.56;6060349;28;20053;-71
2023/05/07 09:28:29;;;;;;;10.73;6.65;;;;;;;11.17;80.13;101572.06;6051177;28;20030;-72
2023/05/07 09:31:25;;;;;;;8.33;5.10;;;;;;;11.50;78.72;101579.81;6052034;28;20053;-71
2023/05/07 09:34:21;;;;;;;14.45;7.05;;;;;;;11.32;79.48;101581.38;6056298;28;20305;-68
2023/05/07 09:37:16;;;;;;;9.60;5.70;;;;;;;11.52;79.51;101580.53;6051062;28;20040;-68
2023/05/07 09:40:22;;;;;;;12.83;6.60;;;;;;;11.47;78.78;101553.50;6051729;28;20033;-71
2023/05/07 09:43:18;;;;;;;9.73;6.20;;;;;;;11.68;76.92;101561.47;6064599;28;20444;-68
2023/05/07 09:46:15;;;;;;;9.32;5.18;;;;;;;11.79;76.21;101564.91;6066345;28;20456;-69
2023/05/07 09:49:21;;;;;;;9.68;6.65;;;;;;;11.39;76.83;101555.97;6075858;28;20041;-70
2023/05/07 09:52:16;;;;;;;7.88;5.13;;;;;;;11.36;78.77;101580.13;6075478;28;20025;-69
2023/05/07 09:55:12;;;;;;;11.13;5.75;;;;;;;11.70;78.09;101576.34;6064497;28;20040;-73
2023/05/07 09:58:09;;;;;;;9.35;5.25;;;;;;;11.90;77.09;101556.00;6051213;28;20061;-70
2023/05/07 10:01:05;;;;;;;7.30;4.22;;;;;;;12.52;74.64;101564.59;6034050;28;20434;-69
2023/05/07 10:04:02;;;;;;;9.00;5.05;;;;;;;12.20;75.87;101547.16;6050525;28;20433;-71
2023/05/07 10:06:58;;;;;;;8.35;5.15;;;;;;;12.20;74.88;101553.28;6033227;28;20042;-68
2023/05/07 10:09:54;;;;;;;7.97;4.82;;;;;;;12.13;76.02;101562.78;6062782;28;20021;-70
2023/05/07 10:12:50;;;;;;;8.30;5.38;;;;;;;11.84;75.50;101546.75;6037649;28;20038;-72
2023/05/07 10:15:46;;;;;;;7.40;4.68;;;;;;;12.11;76.13;101548.81;6050435;28;20037;-69
2023/05/07 10:18:42;;;;;;;8.57;4.22;;;;;;;12.19;74.89;101534.81;6038619;28;20036;-69
2023/05/07 10:21:39;;;;;;;7.20;3.97;;;;;;;12.60;73.78;101558.56;6053457;28;20037;-70
2023/05/07 10:24:37;;;;;;;7.93;4.57;;;;;;;12.53;72.56;101574.22;6050275;28;20044;-71
2023/05/07 10:27:32;;;;;;;8.05;4.78;;;;;;;12.48;72.93;101557.00;6050290;28;20096;-70
2023/05/07 10:30:46;;;;;;;7.47;4.88;;;;;;;12.94;71.04;101559.84;6048919;28;20371;-71
2023/05/07 10:33:43;;;;;;;8.30;4.32;;;;;;;13.45;70.50;101548.84;6049500;28;20084;-69
2023/05/07 10:36:39;;;;;;;8.88;5.20;;;;;;;13.65;70.75;101562.97;6050353;28;20044;-70
2023/05/07 10:39:34;;;;;;;6.38;3.45;;;;;;;13.53;69.81;101566.81;6046095;28;20037;-69
2023/05/07 10:42:30;;;;;;;8.05;4.47;;;;;;;13.64;70.09;101566.66;6039317;28;20101;-70
2023/05/07 10:45:26;;;;;;;8.03;4.37;;;;;;;13.42;70.63;101569.66;6049240;28;20113;-68
2023/05/07 10:48:21;;;;;;;5.72;3.95;;;;;;;13.47;69.81;101559.41;6050023;28;20033;-72
2023/05/07 10:51:21;;;;;;;7.50;4.37;;;;;;;12.90;70.01;101544.28;6050199;28;20034;-69
2023/05/07 10:54:20;;;;;;;7.82;4.25;;;;;;;12.87;71.23;101542.75;6049458;28;20056;-71
2023/05/07 10:57:32;;;;;;;9.88;4.60;;;;;;;13.05;71.44;101585.47;6050104;28;20063;-69
2023/05/07 11:00:27;;;;;;;6.53;4.38;;;;;;;12.99;70.62;101584.22;6053618;28;20543;-70
2023/05/07 11:03:22;;;;;;;7.43;4.35;;;;;;;13.03;71.65;101568.81;6052864;28;20045;-69
2023/05/07 11:06:18;;;;;;;7.23;3.83;;;;;;;12.59;74.32;101596.78;6052646;28;20120;-72
2023/05/07 11:09:13;;;;;;;9.00;4.60;;;;;;;12.50;75.65;101571.03;6034680;28;20488;-70
2023/05/07 11:12:09;;;;;;;6.28;3.90;;;;;;;12.53;75.22;101568.91;6051372;28;20060;-72
2023/05/07 11:15:08;;;;;;;8.53;5.30;;;;;;;12.51;75.20;101592.16;6048252;28;20029;-71
2023/05/07 11:18:03;;;;;;;6.85;4.32;;;;;;;12.29;75.00;101588.88;6049463;28;20040;-70
2023/05/07 11:20:59;;;;;;;7.57;5.05;;;;;;;12.41;76.11;101578.00;6049830;28;20369;-70
2023/05/07 11:23:55;;;;;;;9.18;4.72;;;;;;;12.14;74.80;101584.91;6048761;28;20092;-71
2023/05/07 11:26:50;;;;;;;8.68;5.55;;;;;;;11.97;75.32;101548.31;6049808;28;20069;-71
2023/05/07 11:29:47;;;;;;;6.38;4.25;;;;;;;12.30;74.98;101585.25;6049303;28;20072;-72
2023/05/07 11:32:42;;;;;;;7.38;4.32;;;;;;;12.31;73.40;101585.09;6049546;28;20018;-71
2023/05/07 11:35:37;;;;;;;8.17;3.50;;;;;;;12.34;74.17;101590.16;6047852;28;20060;-70
2023/05/07 11:38:36;;;;;;;8.10;4.07;;;;;;;12.40;74.66;101576.31;6049261;28;20061;-72
2023/05/07 11:41:39;;;;;;;6.72;3.95;;;;;;;12.90;74.54;101584.22;6062752;28;20026;-72
2023/05/07 11:44:44;;;;;;;7.53;4.57;;;;;;;12.98;71.22;101597.69;6074540;28;20033;-72
2023/05/07 11:47:41;;;;;;;6.97;4.50;;;;;;;12.67;72.46;101582.78;6076424;28;20044;-70
2023/05/07 11:50:50;;;;;;;6.32;4.68;;;;;;;12.75;72.57;101578.47;6034117;28;20081;-69
2023/05/07 11:53:45;;;;;;;6.90;3.78;;;;;;;12.74;72.07;101583.94;6053846;28;20112;-72
2023/05/07 11:56:42;;;;;;;7.03;4.40;;;;;;;12.95;72.23;101593.47;6054515;28;20022;-73
2023/05/07 11:59:40;;;;;;;7.32;4.28;;;;;;;13.15;71.70;101589.03;6052754;28;20472;-72
2023/05/07 12:02:36;;;;;;;7.40;4.15;;;;;;;13.07;70.89;101573.72;6054197;28;20048;-71
2023/05/07 12:05:31;;;;;;;5.90;3.17;;;;;;;13.25;70.94;101578.34;6052947;28;20022;-71
2023/05/07 12:08:26;;;;;;;9.23;7.10;;;;;;;13.20;70.10;101575.28;6053893;28;20036;-71
2023/05/07 12:11:24;;;;;;;5.83;3.20;;;;;;;13.55;69.95;101586.16;6053904;28;20085;-73
2023/05/07 12:14:20;;;;;;;5.63;3.53;;;;;;;13.29;69.84;101595.75;6052906;28;20485;-69
2023/05/07 12:17:16;;;;;;;6.47;3.40;;;;;;;13.25;70.04;101581.88;6053933;28;20040;-72
2023/05/07 12:20:11;;;;;;;6.43;3.33;;;;;;;13.61;69.62;101593.59;6053641;28;20762;-70
2023/05/07 12:23:06;;;;;;;7.45;4.10;;;;;;;13.39;70.00;101592.09;6063522;28;20036;-70
2023/05/07 12:26:02;;;;;;;7.03;3.87;;;;;;;12.83;71.75;101594.56;6052806;28;20507;-72
2023/05/07 12:28:58;;;;;;;7.25;4.63;;;;;;;12.94;71.55;101596.25;6058779;28;20052;-71
2023/05/07 12:31:53;;;;;;;7.00;4.05;;;;;;;13.03;71.11;101598.94;6067583;28;20342;-72
2023/05/07 12:34:52;;;;;;;5.97;3.83;;;;;;;12.90;72.03;101600.19;6051313;28;20022;-72
2023/05/07 12:37:55;;;;;;;5.13;3.15;;;;;;;13.05;72.38;101604.97;6053074;28;20017;-72
2023/05/07 12:40:54;;;;;;;7.95;3.83;;;;;;;12.86;73.55;101586.31;6053360;28;20053;-72
2023/05/07 12:43:49;;;;;;;7.15;4.00;;;;;;;13.13;73.91;101582.16;6064838;28;20026;-73
2023/05/07 12:46:46;;;;;;;6.07;3.77;;;;;;;13.19;71.83;101605.53;6053264;28;20484;-70
2023/05/07 12:49:42;;;;;;;7.25;4.20;;;;;;;12.93;72.61;101600.78;6052911;28;20026;-72
2023/05/07 12:52:37;;;;;;;5.85;3.55;;;;;;;13.02;73.04;101589.25;6053222;28;20469;-70
2023/05/07 12:55:46;;;;;;;7.55;4.38;;;;;;;12.80;71.96;101586.88;6051962;28;20065;-71
2023/05/07 12:58:41;;;;;;;9.88;4.20;;;;;;;12.71;73.84;101597.50;6052828;28;20032;-72
2023/05/07 13:01:37;;;;;;;6.77;3.87;;;;;;;12.68;73.89;101606.63;6052699;28;20458;-73
2023/05/07 13:04:33;;;;;;;6.90;3.67;;;;;;;12.82;73.44;101602.72;6052292;28;20032;-71
2023/05/07 13:07:28;;;;;;;15.98;7.72;;;;;;;12.84;73.74;101616.72;6052600;28;20038;-72
2023/05/07 13:10:24;;;;;;;9.50;5.57;;;;;;;12.58;72.77;101592.47;6052248;28;20030;-74
2023/05/07 13:13:20;;;;;;;23.23;10.57;;;;;;;12.89;72.62;101598.50;6051726;28;20046;-73
2023/05/07 13:16:16;;;;;;;15.25;8.40;;;;;;;13.13;71.06;101575.00;6052494;28;20030;-74
2023/05/07 13:19:11;;;;;;;11.80;7.15;;;;;;;12.78;72.03;101602.16;6052502;28;20170;-70
2023/05/07 13:22:06;;;;;;;9.50;6.30;;;;;;;12.75;72.74;101589.09;6052628;28;20030;-71
2023/05/07 13:25:02;;;;;;;8.67;5.07;;;;;;;12.87;73.23;101584.50;6051512;28;20029;-72
2023/05/07 13:27:57;;;;;;;11.57;6.03;;;;;;;13.31;71.54;101588.44;6052077;28;20053;-70
2023/05/07 13:30:54;;;;;;;8.95;5.10;;;;;;;13.06;71.61;101579.19;6052133;28;20137;-73
2023/05/07 13:33:49;;;;;;;9.77;5.10;;;;;;;13.20;70.92;101580.59;6051680;28;20520;-73